createdAt,value
2018-02-03T00:01:49.043Z,6.53
2018-02-03T00:04:17.332Z,6.95
2018-02-03T00:06:44.924Z,6.78
2018-02-03T00:09:13.233Z,5.00
2018-02-03T00:11:40.837Z,6.45
2018-02-03T00:14:08.391Z,5.47
2018-02-03T00:16:35.942Z,5.28
2018-02-03T00:19:03.511Z,6.22
2018-02-03T00:21:31.732Z,5.80
2018-02-03T00:23:59.343Z,6.55
2018-02-03T00:26:26.909Z,5.65
2018-02-03T00:28:54.449Z,6.35
2018-02-03T00:31:22.001Z,5.60
2018-02-03T00:33:49.531Z,5.22
2018-02-03T00:36:17.070Z,6.53
2018-02-03T00:38:45.373Z,5.35
2018-02-03T00:41:13.025Z,5.53
2018-02-03T00:43:40.580Z,6.57
2018-02-03T00:46:09.228Z,4.55
2018-02-03T00:48:38.467Z,5.40
2018-02-03T00:51:06.880Z,5.22
2018-02-03T00:53:34.437Z,4.80
2018-02-03T00:56:02.070Z,7.20
2018-02-03T00:58:29.685Z,7.07
2018-02-03T01:00:57.221Z,4.25
2018-02-03T01:03:25.052Z,5.60
2018-02-03T01:05:53.375Z,6.18
2018-02-03T01:08:21.621Z,6.07
2018-02-03T01:10:49.196Z,4.87
2018-02-03T01:13:17.167Z,4.40
2018-02-03T01:15:44.738Z,4.85
2018-02-03T01:18:12.267Z,5.07
2018-02-03T01:20:39.873Z,5.72
2018-02-03T01:23:11.235Z,4.72
2018-02-03T01:25:38.746Z,4.87
2018-02-03T01:28:06.754Z,5.57
2018-02-03T01:30:35.089Z,6.43
2018-02-03T01:33:02.680Z,5.50
2018-02-03T01:35:30.310Z,6.10
2018-02-03T01:37:57.861Z,5.22
2018-02-03T01:40:25.451Z,6.22
2018-02-03T01:42:52.987Z,5.62
2018-02-03T01:45:20.580Z,4.97
2018-02-03T01:47:53.096Z,5.55
2018-02-03T01:50:20.696Z,5.00
2018-02-03T01:52:48.242Z,5.07
2018-02-03T01:55:15.841Z,5.30
2018-02-03T01:57:43.400Z,5.87
2018-02-03T02:00:10.944Z,4.35
2018-02-03T02:02:39.265Z,4.12
2018-02-03T02:05:07.582Z,5.43
2018-02-03T02:07:35.558Z,3.90
2018-02-03T02:10:03.129Z,4.15
2018-02-03T02:12:30.681Z,4.80
2018-02-03T02:14:58.231Z,4.53
2018-02-03T02:17:25.744Z,4.07
2018-02-03T02:19:53.283Z,4.22
2018-02-03T02:22:20.809Z,4.50
2018-02-03T02:24:48.333Z,4.10
2018-02-03T02:27:17.496Z,4.70
2018-02-03T02:29:45.845Z,4.43
2018-02-03T02:32:13.417Z,4.85
2018-02-03T02:34:40.927Z,4.47
2018-02-03T02:37:09.241Z,3.95
2018-02-03T02:39:37.088Z,4.07
2018-02-03T02:42:05.425Z,3.60
2018-02-03T02:44:33.840Z,4.57
2018-02-03T02:47:02.197Z,4.80
2018-02-03T02:49:30.503Z,3.72
2018-02-03T02:51:58.815Z,4.53
2018-02-03T02:54:26.347Z,4.37
2018-02-03T02:56:53.875Z,4.10
2018-02-03T02:59:21.590Z,3.53
2018-02-03T03:01:49.923Z,4.50
2018-02-03T03:04:18.247Z,4.75
2018-02-03T03:06:45.781Z,3.67
2018-02-03T03:09:14.112Z,3.70
2018-02-03T03:11:41.643Z,3.72
2018-02-03T03:14:09.166Z,4.40
2018-02-03T03:16:36.712Z,4.65
2018-02-03T03:19:04.254Z,5.18
2018-02-03T03:21:31.828Z,4.55
2018-02-03T03:23:59.360Z,4.90
2018-02-03T03:26:27.619Z,5.18
2018-02-03T03:28:55.178Z,6.07
2018-02-03T03:31:22.737Z,5.20
2018-02-03T03:33:51.190Z,4.18
2018-02-03T03:36:19.578Z,4.03
2018-02-03T03:38:47.838Z,4.20
2018-02-03T03:41:15.662Z,4.87
2018-02-03T03:43:43.224Z,4.43
2018-02-03T03:46:10.730Z,4.85
2018-02-03T03:48:39.113Z,4.90
2018-02-03T03:51:07.434Z,4.75
2018-02-03T03:53:35.973Z,5.57
2018-02-03T03:56:03.739Z,5.20
2018-02-03T03:58:32.116Z,4.68
2018-02-03T04:00:59.624Z,4.75
2018-02-03T04:03:27.135Z,5.43
2018-02-03T04:05:56.241Z,4.20
2018-02-03T04:08:25.405Z,5.03
2018-02-03T04:10:52.940Z,4.80
2018-02-03T04:13:20.476Z,3.70
2018-02-03T04:15:48.003Z,4.07
2018-02-03T04:18:16.629Z,5.20
2018-02-03T04:20:44.187Z,5.30
2018-02-03T04:23:11.717Z,4.85
2018-02-03T04:25:39.262Z,3.97
2018-02-03T04:28:07.632Z,4.90
2018-02-03T04:30:35.999Z,4.05
2018-02-03T04:33:03.564Z,4.20
2018-02-03T04:35:31.115Z,4.62
2018-02-03T04:37:59.264Z,4.03
2018-02-03T04:40:27.603Z,4.35
2018-02-03T04:42:56.464Z,5.20
2018-02-03T04:45:24.013Z,4.60
2018-02-03T04:47:52.327Z,3.60
2018-02-03T04:50:19.949Z,3.58
2018-02-03T04:52:47.462Z,4.60
2018-02-03T04:55:15.012Z,3.90
2018-02-03T04:57:42.662Z,4.40
2018-02-03T05:00:10.993Z,4.20
2018-02-03T05:02:38.617Z,4.25
2018-02-03T05:05:06.224Z,4.37
2018-02-03T05:07:34.134Z,3.30
2018-02-03T05:10:02.431Z,4.22
2018-02-03T05:12:30.079Z,3.85
2018-02-03T05:14:57.646Z,4.57
2018-02-03T05:17:25.188Z,3.62
2018-02-03T05:19:53.508Z,4.05
2018-02-03T05:22:21.321Z,3.92
2018-02-03T05:24:49.626Z,4.00
2018-02-03T05:27:17.206Z,5.47
2018-02-03T05:29:44.785Z,3.95
2018-02-03T05:32:12.308Z,4.25
2018-02-03T05:34:39.876Z,4.03
2018-02-03T05:37:07.490Z,4.28
2018-02-03T05:39:35.073Z,3.65
2018-02-03T05:42:02.746Z,3.90
2018-02-03T05:44:35.669Z,3.85
2018-02-03T05:47:03.223Z,3.85
2018-02-03T05:49:31.556Z,4.65
2018-02-03T05:51:59.083Z,5.22
2018-02-03T05:54:27.550Z,4.53
2018-02-03T05:56:55.212Z,4.45
2018-02-03T05:59:23.078Z,4.70
2018-02-03T06:01:51.065Z,3.70
2018-02-03T06:04:18.622Z,4.70
2018-02-03T06:06:46.143Z,4.80
2018-02-03T06:09:13.672Z,4.00
2018-02-03T06:11:42.079Z,4.28
2018-02-03T06:14:10.441Z,4.57
2018-02-03T06:16:39.813Z,4.57
2018-02-03T06:19:08.273Z,5.95
2018-02-03T06:21:35.830Z,6.55
2018-02-03T06:24:03.427Z,5.47
2018-02-03T06:26:31.697Z,6.85
2018-02-03T06:28:59.217Z,7.50
2018-02-03T06:31:26.806Z,6.40
2018-02-03T06:33:54.431Z,6.53
2018-02-03T06:36:21.983Z,7.70
2018-02-03T06:38:49.654Z,6.43
2018-02-03T06:41:18.213Z,6.78
2018-02-03T06:43:45.737Z,6.70
2018-02-03T06:46:13.304Z,7.45
2018-02-03T06:48:41.627Z,6.40
2018-02-03T06:51:09.450Z,6.18
2018-02-03T06:53:37.786Z,7.03
2018-02-03T06:56:05.298Z,6.85
2018-02-03T06:58:33.630Z,5.80
2018-02-03T07:01:01.256Z,6.95
2018-02-03T07:03:28.789Z,6.62
2018-02-03T07:05:57.108Z,5.75
2018-02-03T07:08:25.257Z,6.35
2018-02-03T07:10:52.785Z,6.45
2018-02-03T07:13:20.307Z,6.43
2018-02-03T07:15:48.251Z,6.62
2018-02-03T07:18:15.804Z,6.30
2018-02-03T07:20:43.364Z,5.93
2018-02-03T07:23:10.923Z,6.25
2018-02-03T07:25:38.703Z,5.97
2018-02-03T07:28:06.266Z,5.95
2018-02-03T07:30:33.840Z,6.93
2018-02-03T07:33:01.436Z,6.37
2018-02-03T07:35:29.018Z,7.25
2018-02-03T07:37:56.604Z,6.47
2018-02-03T07:40:25.338Z,6.68
2018-02-03T07:42:52.846Z,7.10
2018-02-03T07:45:20.407Z,5.28
2018-02-03T07:47:47.969Z,6.00
2018-02-03T07:50:15.495Z,6.68
2018-02-03T07:52:43.085Z,4.68
2018-02-03T07:55:13.100Z,6.82
2018-02-03T07:57:41.430Z,5.75
2018-02-03T08:00:09.062Z,6.10
2018-02-03T08:02:36.601Z,5.30
2018-02-03T08:05:04.125Z,6.32
2018-02-03T08:07:31.721Z,4.87
2018-02-03T08:10:00.062Z,5.25
2018-02-03T08:12:27.646Z,5.20
2018-02-03T08:14:55.294Z,6.00
2018-02-03T08:17:22.816Z,6.75
2018-02-03T08:19:50.395Z,5.75
2018-02-03T08:22:18.733Z,6.15
2018-02-03T08:24:46.293Z,6.57
2018-02-03T08:27:14.631Z,6.75
2018-02-03T08:29:42.967Z,5.95
2018-02-03T08:32:10.564Z,7.03
2018-02-03T08:34:38.888Z,7.00
2018-02-03T08:37:06.464Z,8.38
2018-02-03T08:39:33.991Z,6.20
2018-02-03T08:42:01.524Z,6.47
2018-02-03T08:44:29.097Z,8.23
2018-02-03T08:46:57.358Z,7.05
2018-02-03T08:49:24.903Z,7.50
2018-02-03T08:51:52.503Z,6.53
2018-02-03T08:54:20.043Z,7.72
2018-02-03T08:56:47.604Z,7.70
2018-02-03T08:59:15.149Z,7.20
2018-02-03T09:01:43.458Z,6.05
2018-02-03T09:04:10.973Z,6.57
2018-02-03T09:06:38.567Z,7.20
2018-02-03T09:09:06.966Z,7.53
2018-02-03T09:11:34.640Z,8.95
2018-02-03T09:14:02.255Z,7.85
2018-02-03T09:16:29.826Z,9.07
2018-02-03T09:18:57.354Z,7.60
2018-02-03T09:21:25.529Z,7.50
2018-02-03T09:23:54.112Z,7.28
2018-02-03T09:26:21.830Z,8.10
2018-02-03T09:28:50.251Z,7.57
2018-02-03T09:31:17.833Z,6.93
2018-02-03T09:33:45.373Z,9.80
2018-02-03T09:36:12.933Z,8.68
2018-02-03T09:38:40.509Z,8.75
2018-02-03T09:41:08.057Z,6.68
2018-02-03T09:43:36.470Z,7.95
2018-02-03T09:46:04.071Z,7.15
2018-02-03T09:48:32.414Z,7.80
2018-02-03T09:51:00.043Z,9.45
2018-02-03T09:53:27.583Z,7.90
2018-02-03T09:55:55.105Z,8.43
2018-02-03T09:58:22.750Z,7.72
2018-02-03T10:00:50.331Z,7.50
2018-02-03T10:03:18.780Z,7.70
2018-02-03T10:05:47.135Z,8.57
2018-02-03T10:08:14.832Z,8.32
2018-02-03T10:10:42.393Z,8.07
2018-02-03T10:13:10.206Z,7.28
2018-02-03T10:15:37.737Z,6.47
2018-02-03T10:18:05.319Z,7.78
2018-02-03T10:20:33.738Z,8.20
2018-02-03T10:23:01.261Z,10.98
2018-02-03T10:25:29.654Z,7.93
2018-02-03T10:27:57.199Z,7.72
2018-02-03T10:30:24.780Z,8.05
2018-02-03T10:32:52.372Z,7.12
2018-02-03T10:35:19.924Z,8.07
2018-02-03T10:37:47.441Z,8.20
2018-02-03T10:40:14.991Z,9.10
2018-02-03T10:42:43.229Z,6.87
2018-02-03T10:45:10.942Z,7.10
2018-02-03T10:47:38.518Z,7.80
2018-02-03T10:50:06.130Z,7.90
2018-02-03T10:52:35.346Z,7.35
2018-02-03T10:55:04.542Z,9.15
2018-02-03T10:57:32.124Z,5.18
2018-02-03T10:59:59.712Z,8.27
2018-02-03T11:02:28.068Z,8.45
2018-02-03T11:04:56.300Z,7.20
2018-02-03T11:07:24.778Z,5.93
2018-02-03T11:09:52.383Z,6.15
2018-02-03T11:12:20.007Z,6.18
2018-02-03T11:14:48.346Z,7.12
2018-02-03T11:17:17.501Z,6.40
2018-02-03T11:19:45.204Z,6.12
2018-02-03T11:22:12.776Z,5.97
2018-02-03T11:24:40.290Z,6.45
2018-02-03T11:27:07.994Z,7.18
2018-02-03T11:29:35.605Z,6.18
2018-02-03T11:32:03.896Z,6.35
2018-02-03T11:34:31.418Z,6.53
2018-02-03T11:36:59.604Z,5.90
2018-02-03T11:39:27.386Z,7.60
2018-02-03T11:41:54.970Z,5.30
2018-02-03T11:44:23.239Z,8.50
2018-02-03T11:46:50.777Z,8.00
2018-02-03T11:49:18.335Z,5.45
2018-02-03T11:51:45.898Z,5.55
2018-02-03T11:54:13.450Z,7.78
2018-02-03T11:56:41.073Z,6.72
2018-02-03T11:59:08.617Z,6.60
2018-02-03T12:01:36.195Z,5.32
2018-02-03T12:04:03.850Z,6.30
2018-02-03T12:06:31.443Z,6.90
2018-02-03T12:08:59.001Z,6.30
2018-02-03T12:11:26.625Z,6.45
2018-02-03T12:13:55.764Z,5.70
2018-02-03T12:18:56.414Z,5.12
2018-02-03T12:21:24.872Z,4.20
2018-02-03T12:23:52.467Z,3.83
2018-02-03T12:26:21.726Z,4.50
2018-02-03T12:28:49.284Z,4.30
2018-02-03T12:31:16.810Z,4.20
2018-02-03T12:33:44.425Z,5.40
2018-02-03T12:36:11.966Z,5.90
2018-02-03T12:38:40.334Z,4.62
2018-02-03T12:41:08.840Z,4.68
2018-02-03T12:43:36.388Z,5.10
2018-02-03T12:46:03.998Z,5.97
2018-02-03T12:48:31.619Z,3.47
2018-02-03T12:50:59.160Z,4.07
2018-02-03T12:53:26.686Z,6.20
2018-02-03T12:55:55.336Z,4.72
2018-02-03T12:58:22.908Z,4.22
2018-02-03T13:00:51.447Z,7.18
2018-02-03T13:03:19.038Z,6.68
2018-02-03T13:05:46.664Z,6.20
2018-02-03T13:08:14.258Z,7.47
2018-02-03T13:10:41.862Z,6.32
2018-02-03T13:13:09.395Z,6.18
2018-02-03T13:15:37.799Z,6.75
2018-02-03T13:18:05.436Z,8.23
2018-02-03T13:20:33.807Z,8.10
2018-02-03T13:23:01.492Z,6.53
2018-02-03T13:25:29.026Z,7.87
2018-02-03T13:27:56.565Z,7.10
2018-02-03T13:30:24.120Z,7.50
2018-02-03T13:32:51.800Z,6.50
2018-02-03T13:35:19.403Z,6.12
2018-02-03T13:37:47.041Z,6.85
2018-02-03T13:40:14.662Z,9.50
2018-02-03T13:42:42.201Z,7.35
2018-02-03T13:45:09.847Z,9.48
2018-02-03T13:47:37.404Z,8.65
2018-02-03T13:50:05.172Z,8.93
2018-02-03T13:52:33.534Z,9.95
2018-02-03T13:55:02.067Z,10.65
2018-02-03T13:57:29.637Z,11.00
2018-02-03T13:59:57.157Z,8.98
2018-02-03T14:02:24.754Z,10.85
2018-02-03T14:04:52.350Z,9.90
2018-02-03T14:07:19.907Z,10.85
2018-02-03T14:09:47.640Z,9.48
2018-02-03T14:12:15.673Z,10.60
2018-02-03T14:14:43.223Z,10.68
2018-02-03T14:17:10.819Z,9.80
2018-02-03T14:19:38.367Z,12.27
2018-02-03T14:22:05.882Z,11.18
2018-02-03T14:24:39.145Z,10.27
2018-02-03T14:27:07.637Z,12.88
2018-02-03T14:29:35.210Z,9.98
2018-02-03T14:32:02.763Z,10.60
2018-02-03T14:34:31.109Z,9.63
2018-02-03T14:36:58.749Z,10.52
2018-02-03T14:39:26.335Z,9.63
2018-02-03T14:41:53.902Z,11.15
2018-02-03T14:44:21.429Z,9.88
2018-02-03T14:46:49.785Z,12.98
2018-02-03T14:49:17.370Z,15.63
2018-02-03T14:51:45.366Z,12.32
2018-02-03T14:54:12.981Z,11.30
2018-02-03T14:56:41.335Z,12.07
2018-02-03T14:59:09.731Z,10.90
2018-02-03T15:01:37.302Z,11.30
2018-02-03T15:04:05.658Z,11.23
2018-02-03T15:06:33.252Z,12.80
2018-02-03T15:09:00.787Z,11.73
2018-02-03T15:11:28.396Z,11.75
2018-02-03T15:13:56.036Z,11.90
2018-02-03T15:16:24.360Z,12.20
2018-02-03T15:18:51.969Z,14.43
2018-02-03T15:21:19.696Z,11.65
2018-02-03T15:23:47.229Z,11.27
2018-02-03T15:26:14.879Z,12.45
2018-02-03T15:28:42.471Z,16.30
2018-02-03T15:31:10.084Z,13.10
2018-02-03T15:33:38.407Z,14.43
2018-02-03T15:36:06.020Z,13.75
2018-02-03T15:38:34.441Z,15.10
2018-02-03T15:41:01.981Z,13.23
2018-02-03T15:43:29.519Z,14.93
2018-02-03T15:45:57.892Z,15.80
2018-02-03T15:48:26.238Z,16.12
2018-02-03T15:50:53.834Z,16.10
2018-02-03T15:53:22.213Z,17.83
2018-02-03T15:55:50.516Z,16.55
2018-02-03T15:58:18.252Z,14.70
2018-02-03T16:00:46.636Z,17.08
2018-02-03T16:03:14.210Z,17.60
2018-02-03T16:05:41.792Z,16.83
2018-02-03T16:08:09.426Z,16.10
2018-02-03T16:10:37.710Z,17.37
2018-02-03T16:13:05.225Z,18.62
2018-02-03T16:15:33.546Z,17.48
2018-02-03T16:18:01.071Z,16.02
2018-02-03T16:20:29.246Z,18.50
2018-02-03T16:22:56.848Z,17.50
2018-02-03T16:25:24.429Z,22.23
2018-02-03T16:27:51.937Z,19.67
2018-02-03T16:30:19.497Z,20.00
2018-02-03T16:32:47.067Z,18.50
2018-02-03T16:35:14.650Z,24.42
2018-02-03T16:37:42.831Z,19.52
2018-02-03T16:40:10.389Z,18.23
2018-02-03T16:42:39.215Z,18.92
2018-02-03T16:45:06.760Z,19.85
2018-02-03T16:47:34.305Z,18.58
2018-02-03T16:50:01.890Z,17.92
2018-02-03T16:52:30.278Z,18.30
2018-02-03T16:54:57.855Z,18.15
2018-02-03T16:57:26.186Z,19.35
2018-02-03T16:59:53.721Z,20.58
2018-02-03T17:02:21.376Z,20.40
2018-02-03T17:04:48.975Z,20.02
2018-02-03T17:07:16.946Z,21.55
2018-02-03T17:09:44.516Z,24.48
2018-02-03T17:12:12.129Z,20.25
2018-02-03T17:14:40.493Z,23.30
2018-02-03T17:17:08.084Z,23.35
2018-02-03T17:19:35.673Z,27.25
2018-02-03T17:22:04.627Z,21.75
2018-02-03T17:24:32.206Z,21.33
2018-02-03T17:27:00.713Z,23.52
2018-02-03T17:29:28.590Z,21.33
2018-02-03T17:31:56.737Z,25.17
2018-02-03T17:34:25.323Z,23.58
2018-02-03T17:36:59.255Z,23.30
2018-02-03T17:39:26.865Z,23.87
2018-02-03T17:41:54.503Z,25.00
2018-02-03T17:44:22.107Z,21.48
2018-02-03T17:46:55.798Z,23.80
2018-02-03T17:49:24.034Z,22.10
2018-02-03T17:51:51.609Z,19.45
2018-02-03T17:54:19.216Z,20.10
2018-02-03T17:56:52.408Z,15.32
2018-02-03T17:59:20.078Z,16.08
2018-02-03T18:01:47.630Z,11.95
2018-02-03T18:04:15.228Z,11.00
2018-02-03T18:06:48.393Z,9.45
2018-02-03T18:09:15.928Z,8.07
2018-02-03T18:11:44.339Z,9.98
2018-02-03T18:14:11.852Z,8.45
2018-02-03T18:16:39.444Z,9.38
2018-02-03T18:19:07.766Z,9.55
2018-02-03T18:21:35.386Z,10.05
2018-02-03T18:24:03.865Z,10.75
2018-02-03T18:26:31.432Z,9.35
2018-02-03T18:28:59.083Z,12.55
2018-02-03T18:31:27.809Z,12.85
2018-02-03T18:33:55.392Z,10.70
2018-02-03T18:36:23.011Z,10.35
2018-02-03T18:38:50.560Z,10.35
2018-02-03T18:41:18.194Z,11.18
2018-02-03T18:43:45.713Z,13.48
2018-02-03T18:46:13.240Z,12.30
2018-02-03T18:48:41.557Z,12.63
2018-02-03T18:51:09.889Z,12.82
2018-02-03T18:53:38.214Z,11.75
2018-02-03T18:56:05.824Z,12.35
2018-02-03T18:58:33.518Z,12.55
2018-02-03T19:01:01.127Z,12.65
2018-02-03T19:03:29.665Z,12.80
2018-02-03T19:05:57.256Z,14.90
2018-02-03T19:08:24.819Z,14.87
2018-02-03T19:10:52.431Z,15.13
2018-02-03T19:13:20.703Z,14.57
2018-02-03T19:15:48.318Z,14.38
2018-02-03T19:18:15.890Z,14.85
2018-02-03T19:20:43.448Z,12.57
2018-02-03T19:23:12.700Z,13.88
2018-02-03T19:25:40.297Z,13.02
2018-02-03T19:28:07.874Z,13.05
2018-02-03T19:30:35.466Z,13.25
2018-02-03T19:33:02.994Z,14.75
2018-02-03T19:35:30.570Z,14.80
2018-02-03T19:37:58.980Z,16.15
2018-02-03T19:40:26.494Z,12.95
2018-02-03T19:42:54.029Z,16.25
2018-02-03T19:45:21.589Z,16.77
2018-02-03T19:47:49.145Z,15.00
2018-02-03T19:50:16.724Z,14.60
2018-02-03T19:52:44.312Z,16.25
2018-02-03T19:55:11.849Z,8.75
2018-02-03T19:57:39.364Z,16.55
2018-02-03T20:00:06.921Z,14.87
2018-02-03T20:02:34.516Z,14.57
2018-02-03T20:05:02.404Z,14.45
2018-02-03T20:10:22.288Z,17.20
2018-02-03T20:12:49.814Z,12.70
2018-02-03T20:15:18.196Z,16.10
2018-02-03T20:17:45.754Z,12.85
2018-02-03T20:20:13.300Z,11.88
2018-02-03T20:22:40.940Z,12.60
2018-02-03T20:25:08.564Z,13.20
2018-02-03T20:27:36.231Z,14.75
2018-02-03T20:30:04.705Z,12.68
2018-02-03T20:32:32.429Z,12.02
2018-02-03T20:34:59.981Z,12.88
2018-02-03T20:37:27.494Z,11.68
2018-02-03T20:39:55.518Z,12.37
2018-02-03T20:42:23.090Z,11.30
2018-02-03T20:44:50.639Z,12.57
2018-02-03T20:47:19.033Z,12.10
2018-02-03T20:49:46.579Z,10.88
2018-02-03T20:52:15.020Z,9.63
2018-02-03T20:54:43.392Z,11.23
2018-02-03T20:57:11.893Z,10.98
2018-02-03T20:59:39.637Z,8.68
2018-02-03T21:02:08.044Z,11.25
2018-02-03T21:04:35.600Z,11.12
2018-02-03T21:07:03.227Z,9.95
2018-02-03T21:09:30.739Z,8.63
2018-02-03T21:11:58.313Z,9.70
2018-02-03T21:14:25.960Z,8.13
2018-02-03T21:16:53.480Z,11.12
2018-02-03T21:19:21.799Z,7.90
2018-02-03T21:21:49.339Z,9.35
2018-02-03T21:24:17.617Z,9.30
2018-02-03T21:26:45.146Z,9.70
2018-02-03T21:29:13.592Z,9.18
2018-02-03T21:31:41.184Z,10.23
2018-02-03T21:34:08.738Z,8.95
2018-02-03T21:36:36.269Z,11.20
2018-02-03T21:39:04.419Z,9.38
2018-02-03T21:41:31.965Z,12.27
2018-02-03T21:43:59.461Z,9.90
2018-02-03T21:46:27.872Z,10.18
2018-02-03T21:48:55.897Z,12.07
2018-02-03T21:51:23.507Z,8.07
2018-02-03T21:53:51.094Z,10.30
2018-02-03T21:56:19.457Z,10.23
2018-02-03T21:58:48.650Z,9.70
2018-02-03T22:01:17.095Z,11.52
2018-02-03T22:03:44.726Z,10.55
2018-02-03T22:06:12.634Z,12.85
2018-02-03T22:08:40.699Z,11.12
2018-02-03T22:11:08.423Z,11.02
2018-02-03T22:13:36.315Z,11.00
2018-02-03T22:16:04.021Z,11.63
2018-02-03T22:18:31.884Z,11.95
2018-02-03T22:20:59.610Z,11.10
2018-02-03T22:23:27.216Z,11.12
2018-02-03T22:25:54.740Z,11.35
2018-02-03T22:28:22.289Z,11.55
2018-02-03T22:30:49.864Z,12.23
2018-02-03T22:33:18.152Z,11.30
2018-02-03T22:35:45.764Z,11.88
2018-02-03T22:38:13.335Z,10.95
2018-02-03T22:40:40.928Z,10.82
2018-02-03T22:43:08.499Z,10.70
2018-02-03T22:45:36.103Z,11.70
2018-02-03T22:48:03.793Z,10.82
2018-02-03T22:50:31.828Z,9.65
2018-02-03T22:53:00.633Z,10.95
2018-02-03T22:55:31.968Z,8.85
2018-02-03T22:58:00.812Z,8.55
2018-02-03T23:00:28.360Z,8.93
2018-02-03T23:02:59.723Z,11.65
2018-02-03T23:05:27.866Z,9.98
2018-02-03T23:07:55.413Z,10.27
2018-02-03T23:10:22.985Z,8.10
2018-02-03T23:12:50.740Z,10.10
2018-02-03T23:15:18.323Z,9.45
2018-02-03T23:17:46.352Z,8.80
2018-02-03T23:20:13.905Z,11.65
2018-02-03T23:22:42.256Z,7.40
2018-02-03T23:25:09.820Z,10.75
2018-02-03T23:27:38.071Z,9.85
2018-02-03T23:30:05.667Z,7.90
2018-02-03T23:32:33.247Z,9.23
2018-02-03T23:35:03.872Z,7.85
2018-02-03T23:37:31.542Z,12.07
2018-02-03T23:39:59.120Z,11.02
2018-02-03T23:42:26.701Z,9.15
2018-02-03T23:44:55.036Z,12.35
2018-02-03T23:47:22.950Z,8.98
2018-02-03T23:49:55.681Z,10.43
2018-02-03T23:52:24.105Z,9.23
2018-02-03T23:54:52.468Z,9.93
2018-02-03T23:57:20.980Z,10.98
2018-02-03T23:59:48.598Z,10.65
